sensor_id;sensor_type;location;lat;lon;timestamp;P1;durP1;ratioP1;P2;durP2;ratioP2
63581;SDS011;49727;51.078;17.066;2022-08-01T00:06:45;4.15;;;2.95;;
63581;SDS011;49727;51.078;17.066;2022-08-01T00:21:45;4.22;;;2.78;;
63581;SDS011;49727;51.078;17.066;2022-08-01T00:36:46;5.30;;;3.28;;
63581;SDS011;49727;51.078;17.066;2022-08-01T00:51:46;5.18;;;3.92;;
63581;SDS011;49727;51.078;17.066;2022-08-01T01:22:22;4.03;;;2.90;;
63581;SDS011;49727;51.078;17.066;2022-08-01T01:37:30;4.23;;;3.43;;
63581;SDS011;49727;51.078;17.066;2022-08-01T01:52:32;4.10;;;3.50;;
63581;SDS011;49727;51.078;17.066;2022-08-01T02:07:34;6.07;;;3.60;;
63581;SDS011;49727;51.078;17.066;2022-08-01T02:22:52;3.83;;;2.93;;
63581;SDS011;49727;51.078;17.066;2022-08-01T02:37:56;6.90;;;3.67;;
63581;SDS011;49727;51.078;17.066;2022-08-01T02:52:58;4.97;;;3.73;;
63581;SDS011;49727;51.078;17.066;2022-08-01T03:08:00;5.80;;;4.03;;
63581;SDS011;49727;51.078;17.066;2022-08-01T03:23:07;7.73;;;4.00;;
63581;SDS011;49727;51.078;17.066;2022-08-01T03:38:09;5.93;;;3.30;;
63581;SDS011;49727;51.078;17.066;2022-08-01T03:53:12;8.47;;;3.77;;
63581;SDS011;49727;51.078;17.066;2022-08-01T04:08:13;5.43;;;3.30;;
63581;SDS011;49727;51.078;17.066;2022-08-01T04:23:20;6.55;;;3.92;;
63581;SDS011;49727;51.078;17.066;2022-08-01T04:38:25;7.23;;;3.93;;
63581;SDS011;49727;51.078;17.066;2022-08-01T04:53:27;10.17;;;4.20;;
63581;SDS011;49727;51.078;17.066;2022-08-01T05:08:28;6.95;;;3.70;;
63581;SDS011;49727;51.078;17.066;2022-08-01T05:23:28;6.60;;;3.95;;
63581;SDS011;49727;51.078;17.066;2022-08-01T05:38:28;9.05;;;5.47;;
63581;SDS011;49727;51.078;17.066;2022-08-01T05:53:29;6.97;;;5.82;;
63581;SDS011;49727;51.078;17.066;2022-08-01T06:08:30;8.18;;;7.03;;
63581;SDS011;49727;51.078;17.066;2022-08-01T06:23:31;7.33;;;6.50;;
63581;SDS011;49727;51.078;17.066;2022-08-01T06:38:32;9.00;;;6.32;;
63581;SDS011;49727;51.078;17.066;2022-08-01T06:53:32;7.70;;;4.78;;
63581;SDS011;49727;51.078;17.066;2022-08-01T07:08:33;9.40;;;4.40;;
63581;SDS011;49727;51.078;17.066;2022-08-01T07:23:34;4.50;;;3.03;;
63581;SDS011;49727;51.078;17.066;2022-08-01T07:38:34;3.60;;;3.03;;
63581;SDS011;49727;51.078;17.066;2022-08-01T07:53:34;5.80;;;3.10;;
63581;SDS011;49727;51.078;17.066;2022-08-01T08:08:35;4.53;;;3.33;;
63581;SDS011;49727;51.078;17.066;2022-08-01T08:23:35;6.55;;;3.40;;
63581;SDS011;49727;51.078;17.066;2022-08-01T08:38:54;5.10;;;3.10;;
63581;SDS011;49727;51.078;17.066;2022-08-01T08:53:55;6.22;;;3.33;;
63581;SDS011;49727;51.078;17.066;2022-08-01T09:08:57;7.57;;;3.43;;
63581;SDS011;49727;51.078;17.066;2022-08-01T09:23:57;5.07;;;3.13;;
63581;SDS011;49727;51.078;17.066;2022-08-01T09:39:11;7.80;;;3.40;;
63581;SDS011;49727;51.078;17.066;2022-08-01T09:54:12;9.47;;;3.13;;
63581;SDS011;49727;51.078;17.066;2022-08-01T10:09:37;6.17;;;2.27;;
63581;SDS011;49727;51.078;17.066;2022-08-01T10:24:38;4.17;;;2.60;;
63581;SDS011;49727;51.078;17.066;2022-08-01T10:39:39;6.73;;;2.20;;
63581;SDS011;49727;51.078;17.066;2022-08-01T10:54:39;5.72;;;2.33;;
63581;SDS011;49727;51.078;17.066;2022-08-01T11:09:42;4.25;;;2.85;;
63581;SDS011;49727;51.078;17.066;2022-08-01T11:40:13;3.30;;;2.80;;
63581;SDS011;49727;51.078;17.066;2022-08-01T11:55:18;7.27;;;3.23;;
63581;SDS011;49727;51.078;17.066;2022-08-01T12:10:19;5.55;;;2.83;;
63581;SDS011;49727;51.078;17.066;2022-08-01T12:25:21;4.10;;;2.30;;
63581;SDS011;49727;51.078;17.066;2022-08-01T12:55:30;3.37;;;2.10;;
63581;SDS011;49727;51.078;17.066;2022-08-01T13:10:31;3.70;;;2.63;;
63581;SDS011;49727;51.078;17.066;2022-08-01T13:25:31;4.55;;;2.72;;
63581;SDS011;49727;51.078;17.066;2022-08-01T13:40:31;4.40;;;2.90;;
63581;SDS011;49727;51.078;17.066;2022-08-01T13:55:32;5.75;;;2.95;;
63581;SDS011;49727;51.078;17.066;2022-08-01T14:10:32;5.70;;;1.90;;
63581;SDS011;49727;51.078;17.066;2022-08-01T14:25:33;4.95;;;2.50;;
63581;SDS011;49727;51.078;17.066;2022-08-01T14:40:34;2.30;;;2.00;;
63581;SDS011;49727;51.078;17.066;2022-08-01T14:55:35;2.77;;;2.13;;
63581;SDS011;49727;51.078;17.066;2022-08-01T15:10:35;1.63;;;1.40;;
63581;SDS011;49727;51.078;17.066;2022-08-01T15:25:36;2.70;;;1.70;;
63581;SDS011;49727;51.078;17.066;2022-08-01T15:40:36;3.15;;;1.45;;
63581;SDS011;49727;51.078;17.066;2022-08-01T15:55:37;2.77;;;1.30;;
63581;SDS011;49727;51.078;17.066;2022-08-01T16:10:38;1.03;;;0.90;;
63581;SDS011;49727;51.078;17.066;2022-08-01T16:25:39;4.05;;;0.93;;
63581;SDS011;49727;51.078;17.066;2022-08-01T16:40:39;1.80;;;0.80;;
63581;SDS011;49727;51.078;17.066;2022-08-01T16:55:40;2.00;;;1.00;;
63581;SDS011;49727;51.078;17.066;2022-08-01T17:10:40;0.50;;;0.50;;
63581;SDS011;49727;51.078;17.066;2022-08-01T17:40:41;2.43;;;0.80;;
63581;SDS011;49727;51.078;17.066;2022-08-01T17:55:41;3.67;;;1.07;;
63581;SDS011;49727;51.078;17.066;2022-08-01T18:10:42;2.37;;;1.17;;
63581;SDS011;49727;51.078;17.066;2022-08-01T18:25:42;4.97;;;1.30;;
63581;SDS011;49727;51.078;17.066;2022-08-01T18:40:42;4.43;;;2.00;;
63581;SDS011;49727;51.078;17.066;2022-08-01T18:55:43;2.60;;;1.60;;
63581;SDS011;49727;51.078;17.066;2022-08-01T19:10:43;2.23;;;1.77;;
63581;SDS011;49727;51.078;17.066;2022-08-01T19:25:44;4.23;;;2.23;;
63581;SDS011;49727;51.078;17.066;2022-08-01T19:40:44;3.67;;;2.00;;
63581;SDS011;49727;51.078;17.066;2022-08-01T19:55:44;4.30;;;2.38;;
63581;SDS011;49727;51.078;17.066;2022-08-01T20:10:46;5.23;;;2.40;;
63581;SDS011;49727;51.078;17.066;2022-08-01T20:40:50;4.37;;;2.43;;
63581;SDS011;49727;51.078;17.066;2022-08-01T20:55:53;3.50;;;2.70;;
63581;SDS011;49727;51.078;17.066;2022-08-01T21:11:00;5.23;;;2.97;;
63581;SDS011;49727;51.078;17.066;2022-08-01T21:26:02;6.17;;;3.07;;
63581;SDS011;49727;51.078;17.066;2022-08-01T21:41:03;4.07;;;2.67;;
63581;SDS011;49727;51.078;17.066;2022-08-01T21:56:07;4.60;;;2.90;;
63581;SDS011;49727;51.078;17.066;2022-08-01T22:11:20;5.07;;;3.20;;
63581;SDS011;49727;51.078;17.066;2022-08-01T22:26:23;5.00;;;3.50;;
63581;SDS011;49727;51.078;17.066;2022-08-01T22:41:27;4.37;;;3.40;;
63581;SDS011;49727;51.078;17.066;2022-08-01T22:56:31;4.33;;;3.07;;
63581;SDS011;49727;51.078;17.066;2022-08-01T23:11:36;5.00;;;3.17;;
63581;SDS011;49727;51.078;17.066;2022-08-01T23:26:37;5.27;;;3.40;;
63581;SDS011;49727;51.078;17.066;2022-08-01T23:41:39;5.57;;;3.57;;
63581;SDS011;49727;51.078;17.066;2022-08-01T23:56:39;5.00;;;3.40;;
